Weather forecast for Shopky (Шопки Лагодів)

Ukraine, 275 m
N49.740, E24.519


Sounding

Red line — air temperature ˚C.
Blue line — thermal bubble temperature ˚C.
Green line — dew point temperature ˚C.
Wind speed is in meters per second.

Table forecast

GFS 0.25˚ model

temp. wind gust humid. clouds prec. press. hpbl
Sun19 00:00 18 360.0 n 1 1 86 32 0.0 1020 23
03:00 17 313.0 nw 1 1 89 57 0.0 1020 23
06:00 16 328.0 nnw 1 2 93 36 0.0 1020 23
09:00 20 340.0 nnw 2 2 82 18 0.0 1021 244
12:00 24 359.0 n 3 3 67 0 0.0 1021 897
15:00 26 9.0 n 3 4 59 2 0.0 1020 1451
18:00 25 15.0 nne 3 4 65 3 0.0 1019 1399
21:00 20 23.0 nne 2 2 78 2 0.0 1020 23
 
Mon20 00:00 18 12.0 nne 1 2 82 0 0.0 1020 23
03:00 17 61.0 ene 1 2 87 12 0.0 1019 23
06:00 16 106.0 ese 1 1 87 39 0.0 1019 23
09:00 20 5.0 n 0 0 75 24 0.0 1019 158
12:00 25 69.0 ene 1 1 62 0 0.0 1018 843
15:00 27 136.0 se 1 1 53 0 0.0 1017 1548
18:00 27 262.0 w 0 1 54 1 0.0 1016 1582
21:00 21 325.0 nw 1 1 70 0 0.0 1016 23
 
Tue21 00:00 19 278.0 w 0 1 76 0 0.0 1016 23
03:00 18 210.0 ssw 2 2 81 0 0.0 1016 23
06:00 17 263.0 w 2 3 91 0 0.0 1016 34
09:00 18 307.0 nw 3 6 88 31 0.0 1018 306
12:00 23 324.0 nw 5 6 72 21 0.0 1019 992
15:00 23 326.0 nw 6 7 63 14 0.5 1018 1317
18:00 21 340.0 nnw 4 6 63 0 0.0 1019 1253
21:00 16 351.0 n 2 3 75 0 0.0 1020 23
 
Wed22 00:00 14 341.0 nnw 1 2 78 0 0.0 1022 23
03:00 13 22.0 nne 1 1 82 0 0.0 1022 23
06:00 12 64.0 ene 1 1 87 0 0.0 1023 23
09:00 17 91.0 e 2 3 75 0 0.0 1023 234
12:00 21 102.0 ese 3 3 59 0 0.0 1023 1203
15:00 23 99.0 e 3 4 54 7 0.0 1022 1538
18:00 22 90.0 e 3 4 61 1 0.0 1021 1524
21:00 17 100.0 e 3 4 76 1 0.0 1022 84
 
Thu23 00:00 15 117.0 ese 4 10 77 0 0.0 1022 181
03:00 14 124.0 se 4 11 80 0 0.0 1021 233
06:00 14 127.0 se 4 12 80 0 0.0 1021 305
09:00 17 142.0 se 6 13 72 0 0.0 1020 503
12:00 22 144.0 se 6 10 63 4 0.0 1020 718
15:00 24 143.0 se 6 8 61 3 0.0 1018 871
18:00 23 139.0 se 5 8 67 0 0.0 1017 836
21:00 18 126.0 se 4 9 79 0 0.0 1017 182
 

0.030 s